createdAt,value
2017-10-01T00:00:07.329Z,2.58
2017-10-01T00:02:35.985Z,2.37
2017-10-01T00:05:04.237Z,2.80
2017-10-01T00:07:32.480Z,2.95
2017-10-01T00:10:01.713Z,2.67
2017-10-01T00:12:29.946Z,2.65
2017-10-01T00:14:58.185Z,2.50
2017-10-01T00:17:26.422Z,2.25
2017-10-01T00:19:55.914Z,2.33
2017-10-01T00:22:24.207Z,3.33
2017-10-01T00:24:53.211Z,3.05
2017-10-01T00:27:21.446Z,2.80
2017-10-01T00:29:49.683Z,2.20
2017-10-01T00:32:17.903Z,2.22
2017-10-01T00:34:46.647Z,2.55
2017-10-01T00:37:14.889Z,2.80
2017-10-01T00:39:44.251Z,2.62
2017-10-01T00:42:12.476Z,2.85
2017-10-01T00:44:40.758Z,3.08
2017-10-01T00:47:09.148Z,3.00
2017-10-01T00:49:38.139Z,2.75
2017-10-01T00:52:06.363Z,3.00
2017-10-01T00:54:34.598Z,3.00
2017-10-01T00:57:03.419Z,2.78
2017-10-01T00:59:31.721Z,2.62
2017-10-01T01:02:00.775Z,2.30
2017-10-01T01:04:29.031Z,2.70
2017-10-01T01:06:57.246Z,2.30
2017-10-01T01:09:25.476Z,2.42
2017-10-01T01:11:53.672Z,2.85
2017-10-01T01:14:22.355Z,2.72
2017-10-01T01:16:50.680Z,2.55
2017-10-01T01:19:18.952Z,2.30
2017-10-01T01:21:47.142Z,1.92
2017-10-01T01:24:15.407Z,1.90
2017-10-01T01:26:43.664Z,1.80
2017-10-01T01:29:12.647Z,1.70
2017-10-01T01:31:41.649Z,2.22
2017-10-01T01:34:10.615Z,1.55
2017-10-01T01:36:39.389Z,1.45
2017-10-01T01:39:07.739Z,1.42
2017-10-01T01:41:35.956Z,1.52
2017-10-01T01:44:04.956Z,1.60
2017-10-01T01:46:33.181Z,1.60
2017-10-01T01:49:01.885Z,1.50
2017-10-01T01:51:30.120Z,1.30
2017-10-01T01:53:58.308Z,1.90
2017-10-01T01:56:27.336Z,1.42
2017-10-01T01:58:55.571Z,1.40
2017-10-01T02:01:23.810Z,1.50
2017-10-01T02:03:52.803Z,1.52
2017-10-01T02:06:22.448Z,1.42
2017-10-01T02:08:50.699Z,1.80
2017-10-01T02:11:19.773Z,1.73
2017-10-01T02:13:48.059Z,1.33
2017-10-01T02:16:17.107Z,1.60
2017-10-01T02:18:45.366Z,2.25
2017-10-01T02:21:13.563Z,2.08
2017-10-01T02:23:42.710Z,1.80
2017-10-01T02:26:11.015Z,1.65
2017-10-01T02:28:39.221Z,1.65
2017-10-01T02:31:07.468Z,1.90
2017-10-01T02:33:35.728Z,1.98
2017-10-01T02:36:03.944Z,1.70
2017-10-01T02:38:32.159Z,2.00
2017-10-01T02:41:00.810Z,1.73
2017-10-01T02:43:29.811Z,1.73
2017-10-01T02:45:58.916Z,2.00
2017-10-01T02:48:27.918Z,1.90
2017-10-01T02:50:56.921Z,1.77
2017-10-01T02:53:25.215Z,2.10
2017-10-01T02:55:53.412Z,2.08
2017-10-01T02:58:21.657Z,2.10
2017-10-01T03:00:49.951Z,1.85
2017-10-01T03:03:18.171Z,1.70
2017-10-01T03:05:47.305Z,2.10
2017-10-01T03:08:15.538Z,2.00
2017-10-01T03:10:44.649Z,1.90
2017-10-01T03:13:12.893Z,2.03
2017-10-01T03:15:41.877Z,1.77
2017-10-01T03:18:10.139Z,2.17
2017-10-01T03:20:38.354Z,2.30
2017-10-01T03:23:07.346Z,2.03
2017-10-01T03:25:36.338Z,2.40
2017-10-01T03:28:05.331Z,2.30
2017-10-01T03:30:34.367Z,2.87
2017-10-01T03:33:02.588Z,2.55
2017-10-01T03:35:31.587Z,3.12
2017-10-01T03:38:00.565Z,2.65
2017-10-01T03:40:28.799Z,2.25
2017-10-01T03:42:56.991Z,3.00
2017-10-01T03:45:25.254Z,2.28
2017-10-01T03:47:53.937Z,2.72
2017-10-01T03:50:22.158Z,2.80
2017-10-01T03:52:51.140Z,2.70
2017-10-01T03:55:21.170Z,2.20
2017-10-01T03:57:49.427Z,3.00
2017-10-01T04:00:17.704Z,2.35
2017-10-01T04:02:46.009Z,2.90
2017-10-01T04:05:14.274Z,2.85
2017-10-01T04:07:42.508Z,2.42
2017-10-01T04:10:10.727Z,2.87
2017-10-01T04:12:39.015Z,2.83
2017-10-01T04:15:07.248Z,2.80
2017-10-01T04:17:35.464Z,2.65
2017-10-01T04:22:38.059Z,2.60
2017-10-01T04:25:06.331Z,2.55
2017-10-01T04:27:34.522Z,2.40
2017-10-01T04:30:02.778Z,2.60
2017-10-01T04:32:31.030Z,2.58
2017-10-01T04:35:00.055Z,2.67
2017-10-01T04:37:28.291Z,2.80
2017-10-01T04:39:57.257Z,3.40
2017-10-01T04:42:25.485Z,2.83
2017-10-01T04:44:53.774Z,2.92
2017-10-01T04:47:22.356Z,2.80
2017-10-01T04:49:50.575Z,3.00
2017-10-01T04:52:18.790Z,3.75
2017-10-01T04:54:47.107Z,3.70
2017-10-01T04:57:15.349Z,3.58
2017-10-01T04:59:43.573Z,3.17
2017-10-01T05:02:11.753Z,2.80
2017-10-01T05:04:39.972Z,3.87
2017-10-01T05:07:08.228Z,3.33
2017-10-01T05:09:36.891Z,3.50
2017-10-01T05:12:05.892Z,3.60
2017-10-01T05:14:34.968Z,3.50
2017-10-01T05:17:03.177Z,4.90
2017-10-01T05:19:31.423Z,3.67
2017-10-01T05:21:59.648Z,3.72
2017-10-01T05:24:27.855Z,3.47
2017-10-01T05:26:56.089Z,3.90
2017-10-01T05:29:24.320Z,3.62
2017-10-01T05:31:52.557Z,4.15
2017-10-01T05:34:21.233Z,3.70
2017-10-01T05:36:49.418Z,2.95
2017-10-01T05:39:17.691Z,3.53
2017-10-01T05:41:45.919Z,4.07
2017-10-01T05:44:14.908Z,3.50
2017-10-01T05:46:43.885Z,4.37
2017-10-01T05:49:12.216Z,3.97
2017-10-01T05:51:40.432Z,4.28
2017-10-01T05:54:08.628Z,4.32
2017-10-01T05:56:37.248Z,4.03
2017-10-01T05:59:05.494Z,3.70
2017-10-01T06:01:33.813Z,4.22
2017-10-01T06:04:02.055Z,3.80
2017-10-01T06:06:30.318Z,4.12
2017-10-01T06:08:58.530Z,4.18
2017-10-01T06:11:26.728Z,3.87
2017-10-01T06:13:55.393Z,4.15
2017-10-01T06:16:23.761Z,3.78
2017-10-01T06:18:51.984Z,4.00
2017-10-01T06:21:20.996Z,3.53
2017-10-01T06:23:49.260Z,4.62
2017-10-01T06:26:18.236Z,4.55
2017-10-01T06:28:46.487Z,3.90
2017-10-01T06:31:14.745Z,3.83
2017-10-01T06:33:42.965Z,4.30
2017-10-01T06:36:11.965Z,4.15
2017-10-01T06:38:40.990Z,3.83
2017-10-01T06:41:09.261Z,4.45
2017-10-01T06:43:37.551Z,4.50
2017-10-01T06:46:05.783Z,3.95
2017-10-01T06:48:34.812Z,4.00
2017-10-01T06:51:03.107Z,4.93
2017-10-01T06:53:31.411Z,4.60
2017-10-01T06:56:00.393Z,4.32
2017-10-01T06:58:28.749Z,3.80
2017-10-01T07:00:57.004Z,4.47
2017-10-01T07:03:25.257Z,4.50
2017-10-01T07:05:53.480Z,4.40
2017-10-01T07:08:21.690Z,4.30
2017-10-01T07:10:51.131Z,5.50
2017-10-01T07:13:19.346Z,5.25
2017-10-01T07:15:47.540Z,5.55
2017-10-01T07:18:16.544Z,4.78
2017-10-01T07:20:44.769Z,5.10
2017-10-01T07:23:12.993Z,5.70
2017-10-01T07:25:41.212Z,4.68
2017-10-01T07:28:09.396Z,5.07
2017-10-01T07:30:37.702Z,5.45
2017-10-01T07:33:07.638Z,5.53
2017-10-01T07:35:36.324Z,5.60
2017-10-01T07:38:04.615Z,5.30
2017-10-01T07:40:32.838Z,4.87
2017-10-01T07:43:01.054Z,5.65
2017-10-01T07:45:29.335Z,5.35
2017-10-01T07:47:57.695Z,5.40
2017-10-01T07:50:25.976Z,6.43
2017-10-01T07:52:54.199Z,4.68
2017-10-01T07:55:23.296Z,4.90
2017-10-01T07:57:51.793Z,5.18
2017-10-01T08:00:19.999Z,4.65
2017-10-01T08:02:48.280Z,5.60
2017-10-01T08:05:16.560Z,5.57
2017-10-01T08:07:44.773Z,5.12
2017-10-01T08:10:12.996Z,5.05
2017-10-01T08:12:41.219Z,5.47
2017-10-01T08:15:10.192Z,4.70
2017-10-01T08:17:38.432Z,6.43
2017-10-01T08:20:06.709Z,5.50
2017-10-01T08:22:35.019Z,5.28
2017-10-01T08:25:03.252Z,5.25
2017-10-01T08:27:31.507Z,4.90
2017-10-01T08:30:00.589Z,5.57
2017-10-01T08:32:28.855Z,5.00
2017-10-01T08:34:57.113Z,4.65
2017-10-01T08:37:25.349Z,5.35
2017-10-01T08:39:53.580Z,5.00
2017-10-01T08:42:21.819Z,5.10
2017-10-01T08:44:50.145Z,4.90
2017-10-01T08:47:19.206Z,5.60
2017-10-01T08:49:47.426Z,5.07
2017-10-01T08:52:16.445Z,5.20
2017-10-01T08:54:44.644Z,4.28
2017-10-01T08:57:12.890Z,5.00
2017-10-01T08:59:41.095Z,5.85
2017-10-01T09:02:09.294Z,5.68
2017-10-01T09:04:39.424Z,4.62
2017-10-01T09:07:07.624Z,5.05
2017-10-01T09:09:35.863Z,5.85
2017-10-01T09:12:04.060Z,5.65
2017-10-01T09:14:32.642Z,5.55
2017-10-01T09:17:01.662Z,5.40
2017-10-01T09:19:29.895Z,4.93
2017-10-01T09:21:58.763Z,5.32
2017-10-01T09:24:26.973Z,5.68
2017-10-01T09:26:56.200Z,5.10
2017-10-01T09:29:24.477Z,4.68
2017-10-01T09:31:54.344Z,5.20
2017-10-01T09:34:24.134Z,5.35
2017-10-01T09:36:55.458Z,5.43
2017-10-01T09:39:23.800Z,5.30
2017-10-01T09:41:52.826Z,5.20
2017-10-01T09:44:21.111Z,5.43
2017-10-01T09:46:49.344Z,5.15
2017-10-01T09:49:17.595Z,5.82
2017-10-01T09:51:48.021Z,5.15
2017-10-01T09:54:17.016Z,4.20
2017-10-01T09:56:46.011Z,4.82
2017-10-01T09:59:15.129Z,5.90
2017-10-01T10:01:43.592Z,5.95
2017-10-01T10:04:12.195Z,5.15
2017-10-01T10:06:40.491Z,5.93
2017-10-01T10:09:08.703Z,5.15
2017-10-01T10:11:36.914Z,6.47
2017-10-01T10:14:05.255Z,5.00
2017-10-01T10:16:34.345Z,5.35
2017-10-01T10:19:02.620Z,6.10
2017-10-01T10:21:32.126Z,5.95
2017-10-01T10:24:00.506Z,5.22
2017-10-01T10:26:28.850Z,4.82
2017-10-01T10:28:57.182Z,6.00
2017-10-01T10:31:27.038Z,5.18
2017-10-01T10:33:56.033Z,4.70
2017-10-01T10:36:24.260Z,4.60
2017-10-01T10:38:53.340Z,4.12
2017-10-01T10:41:21.565Z,3.97
2017-10-01T10:43:49.771Z,4.68
2017-10-01T10:46:18.087Z,4.07
2017-10-01T10:48:46.359Z,3.92
2017-10-01T10:51:15.344Z,3.92
2017-10-01T10:53:44.350Z,4.05
2017-10-01T10:56:12.715Z,3.95
2017-10-01T10:58:40.980Z,4.20
2017-10-01T11:01:09.220Z,3.85
2017-10-01T11:03:37.426Z,3.83
2017-10-01T11:06:05.636Z,3.90
2017-10-01T11:08:33.859Z,3.30
2017-10-01T11:11:02.089Z,3.28
2017-10-01T11:13:30.340Z,2.97
2017-10-01T11:15:58.551Z,3.47
2017-10-01T11:18:26.817Z,3.50
2017-10-01T11:20:55.037Z,3.00
2017-10-01T11:23:30.103Z,4.03
2017-10-01T11:25:58.329Z,3.40
2017-10-01T11:28:26.552Z,3.22
2017-10-01T11:30:54.724Z,3.20
2017-10-01T11:33:22.971Z,4.10
2017-10-01T11:35:51.371Z,3.22
2017-10-01T11:38:19.593Z,3.65
2017-10-01T11:40:47.888Z,3.85
2017-10-01T11:43:16.493Z,2.92
2017-10-01T11:45:45.491Z,3.55
2017-10-01T11:48:14.479Z,2.37
2017-10-01T11:50:43.539Z,3.08
2017-10-01T11:53:11.785Z,3.03
2017-10-01T11:55:39.998Z,2.97
2017-10-01T11:58:08.221Z,2.83
2017-10-01T12:00:36.844Z,3.10
2017-10-01T12:03:05.051Z,2.83
2017-10-01T12:05:34.134Z,3.47
2017-10-01T12:08:02.785Z,3.78
2017-10-01T12:10:30.987Z,3.05
2017-10-01T12:12:59.343Z,3.10
2017-10-01T12:15:27.575Z,3.10
2017-10-01T12:17:55.782Z,3.05
2017-10-01T12:20:24.007Z,3.60
2017-10-01T12:22:53.000Z,3.42
2017-10-01T12:25:22.424Z,3.00
2017-10-01T12:27:50.658Z,3.28
2017-10-01T12:30:18.954Z,2.85
2017-10-01T12:32:47.942Z,3.55
2017-10-01T12:37:51.313Z,3.17
2017-10-01T12:40:19.564Z,3.05
2017-10-01T12:42:48.172Z,3.03
2017-10-01T12:45:16.378Z,3.03
2017-10-01T12:47:45.409Z,3.05
2017-10-01T12:50:13.616Z,2.80
2017-10-01T12:52:41.843Z,2.62
2017-10-01T12:55:10.102Z,3.33
2017-10-01T12:57:39.075Z,3.92
2017-10-01T13:00:08.098Z,2.90
2017-10-01T13:02:36.330Z,3.30
2017-10-01T13:05:04.550Z,3.08
2017-10-01T13:07:32.778Z,2.50
2017-10-01T13:10:01.021Z,2.70
2017-10-01T13:12:29.227Z,2.53
2017-10-01T13:14:57.460Z,2.70
2017-10-01T13:17:25.740Z,3.45
2017-10-01T13:19:54.024Z,2.70
2017-10-01T13:22:22.304Z,2.75
2017-10-01T13:24:50.517Z,2.70
2017-10-01T13:27:18.842Z,2.30
2017-10-01T13:29:47.137Z,2.87
2017-10-01T13:32:15.414Z,2.45
2017-10-01T13:34:44.045Z,2.65
2017-10-01T13:37:13.031Z,2.95
2017-10-01T13:39:42.011Z,2.30
2017-10-01T13:42:10.239Z,2.60
2017-10-01T13:44:38.463Z,2.78
2017-10-01T13:47:06.676Z,2.90
2017-10-01T13:49:34.901Z,2.20
2017-10-01T13:52:03.549Z,2.67
2017-10-01T13:54:31.829Z,2.35
2017-10-01T13:57:00.052Z,2.72
2017-10-01T13:59:29.007Z,1.70
2017-10-01T14:01:57.241Z,2.20
2017-10-01T14:04:25.540Z,2.03
2017-10-01T14:06:53.775Z,2.42
2017-10-01T14:09:22.904Z,2.53
2017-10-01T14:11:51.127Z,1.87
2017-10-01T14:14:19.475Z,2.00
2017-10-01T14:16:47.727Z,1.92
2017-10-01T14:19:16.021Z,2.10
2017-10-01T14:21:44.235Z,2.17
2017-10-01T14:24:13.241Z,2.10
2017-10-01T14:26:41.451Z,1.60
2017-10-01T14:29:09.734Z,2.10
2017-10-01T14:31:37.952Z,2.03
2017-10-01T14:34:06.959Z,1.83
2017-10-01T14:36:35.264Z,2.05
2017-10-01T14:39:03.588Z,1.80
2017-10-01T14:41:32.562Z,2.05
2017-10-01T14:44:00.808Z,1.70
2017-10-01T14:46:29.009Z,2.25
2017-10-01T14:48:58.599Z,1.83
2017-10-01T14:51:26.930Z,2.12
2017-10-01T14:53:55.917Z,2.28
2017-10-01T14:56:24.139Z,1.95
2017-10-01T14:58:52.424Z,2.00
2017-10-01T15:01:20.645Z,1.80
2017-10-01T15:03:49.642Z,2.45
2017-10-01T15:06:18.256Z,2.00
2017-10-01T15:08:46.602Z,1.90
2017-10-01T15:11:15.612Z,2.20
2017-10-01T15:13:43.859Z,1.95
2017-10-01T15:16:12.884Z,2.40
2017-10-01T15:18:41.227Z,2.50
2017-10-01T15:21:10.255Z,2.00
2017-10-01T15:23:38.844Z,2.42
2017-10-01T15:26:07.047Z,2.30
2017-10-01T15:28:35.292Z,2.08
2017-10-01T15:31:03.495Z,2.15
2017-10-01T15:33:31.725Z,2.70
2017-10-01T15:36:00.451Z,2.50
2017-10-01T15:38:28.668Z,2.20
2017-10-01T15:40:57.663Z,2.22
2017-10-01T15:43:25.929Z,2.20
2017-10-01T15:45:55.051Z,2.37
2017-10-01T15:48:23.320Z,2.47
2017-10-01T15:50:51.543Z,1.92
2017-10-01T15:53:19.793Z,2.40
2017-10-01T15:55:48.498Z,2.50
2017-10-01T15:58:16.801Z,2.85
2017-10-01T16:00:45.023Z,2.25
2017-10-01T16:03:13.244Z,2.75
2017-10-01T16:05:41.499Z,3.00
2017-10-01T16:08:09.753Z,3.12
2017-10-01T16:10:37.974Z,3.00
2017-10-01T16:13:06.203Z,2.40
2017-10-01T16:15:34.495Z,2.65
2017-10-01T16:18:02.735Z,2.80
2017-10-01T16:20:30.952Z,3.08
2017-10-01T16:22:59.196Z,2.80
2017-10-01T16:25:27.510Z,2.60
2017-10-01T16:27:55.721Z,2.90
2017-10-01T16:30:24.024Z,2.65
2017-10-01T16:32:52.853Z,2.95
2017-10-01T16:37:56.771Z,2.42
2017-10-01T16:40:24.980Z,2.83
2017-10-01T16:42:53.195Z,3.40
2017-10-01T16:45:21.492Z,3.55
2017-10-01T16:47:49.792Z,3.10
2017-10-01T16:50:18.147Z,3.45
2017-10-01T16:52:46.356Z,3.30
2017-10-01T16:55:14.555Z,2.40
2017-10-01T16:57:42.790Z,2.90
2017-10-01T17:00:12.140Z,3.25
2017-10-01T17:02:40.387Z,3.40
2017-10-01T17:05:08.691Z,2.92
2017-10-01T17:07:36.889Z,3.22
2017-10-01T17:10:05.121Z,3.62
2017-10-01T17:12:33.343Z,3.12
2017-10-01T17:15:01.677Z,3.60
2017-10-01T17:17:29.871Z,3.67
2017-10-01T17:19:58.084Z,3.40
2017-10-01T17:22:27.138Z,3.70
2017-10-01T17:24:55.355Z,3.80
2017-10-01T17:27:24.334Z,3.35
2017-10-01T17:29:52.591Z,3.78
2017-10-01T17:32:20.790Z,3.80
2017-10-01T17:34:49.030Z,3.30
2017-10-01T17:37:17.223Z,4.07
2017-10-01T17:39:45.430Z,3.40
2017-10-01T17:42:13.646Z,3.75
2017-10-01T17:44:41.856Z,3.40
2017-10-01T17:47:10.161Z,4.12
2017-10-01T17:49:38.401Z,4.32
2017-10-01T17:52:07.806Z,3.97
2017-10-01T17:54:36.837Z,4.40
2017-10-01T17:57:05.178Z,3.60
2017-10-01T17:59:34.147Z,3.70
2017-10-01T18:02:02.385Z,3.90
2017-10-01T18:04:30.614Z,3.85
2017-10-01T18:06:59.684Z,3.60
2017-10-01T18:09:27.904Z,3.37
2017-10-01T18:11:56.883Z,4.40
2017-10-01T18:14:25.875Z,4.10
2017-10-01T18:16:54.967Z,3.47
2017-10-01T18:19:23.962Z,4.03
2017-10-01T18:21:53.831Z,4.32
2017-10-01T18:24:22.032Z,4.93
2017-10-01T18:26:50.261Z,3.60
2017-10-01T18:29:18.544Z,4.40
2017-10-01T18:31:46.767Z,4.32
2017-10-01T18:34:14.984Z,4.70
2017-10-01T18:36:43.201Z,3.75
2017-10-01T18:39:12.674Z,4.22
2017-10-01T18:41:40.982Z,3.80
2017-10-01T18:44:09.248Z,4.10
2017-10-01T18:46:37.499Z,3.70
2017-10-01T18:49:06.247Z,3.65
2017-10-01T18:51:35.227Z,3.62
2017-10-01T18:54:04.404Z,4.03
2017-10-01T18:56:32.656Z,3.42
2017-10-01T18:59:00.905Z,4.10
2017-10-01T19:01:29.225Z,3.67
2017-10-01T19:03:57.458Z,4.82
2017-10-01T19:06:25.770Z,5.87
2017-10-01T19:08:54.026Z,5.40
2017-10-01T19:11:22.294Z,5.50
2017-10-01T19:13:50.587Z,4.60
2017-10-01T19:16:18.859Z,5.30
2017-10-01T19:18:47.096Z,5.03
2017-10-01T19:21:15.437Z,5.22
2017-10-01T19:23:43.681Z,4.80
2017-10-01T19:26:11.896Z,3.95
2017-10-01T19:28:40.133Z,4.35
2017-10-01T19:31:08.392Z,4.68
2017-10-01T19:33:36.609Z,4.43
2017-10-01T19:36:04.825Z,4.45
2017-10-01T19:38:33.057Z,4.40
2017-10-01T19:41:01.370Z,4.15
2017-10-01T19:43:29.590Z,4.20
2017-10-01T19:45:58.277Z,4.32
2017-10-01T19:48:26.520Z,4.07
2017-10-01T19:50:54.755Z,4.12
2017-10-01T19:53:23.758Z,5.18
2017-10-01T19:55:52.783Z,3.97
2017-10-01T19:58:21.039Z,4.35
2017-10-01T20:00:49.260Z,4.45
2017-10-01T20:03:17.860Z,4.78
2017-10-01T20:05:46.943Z,4.18
2017-10-01T20:08:15.190Z,5.20
2017-10-01T20:10:43.447Z,4.97
2017-10-01T20:13:11.682Z,4.97
2017-10-01T20:15:40.345Z,4.65
2017-10-01T20:18:08.586Z,4.47
2017-10-01T20:20:37.638Z,4.50
2017-10-01T20:23:05.885Z,4.20
2017-10-01T20:25:34.075Z,4.05
2017-10-01T20:28:02.753Z,4.15
2017-10-01T20:30:30.998Z,4.40
2017-10-01T20:32:59.248Z,3.92
2017-10-01T20:35:28.456Z,4.22
2017-10-01T20:37:56.700Z,4.20
2017-10-01T20:40:25.739Z,4.40
2017-10-01T20:42:54.002Z,4.40
2017-10-01T20:45:22.659Z,4.35
2017-10-01T20:47:50.916Z,3.70
2017-10-01T20:50:19.141Z,4.80
2017-10-01T20:52:48.261Z,4.60
2017-10-01T20:55:17.090Z,3.95
2017-10-01T20:57:46.076Z,3.92
2017-10-01T21:00:15.062Z,4.10
2017-10-01T21:02:43.335Z,3.65
2017-10-01T21:05:11.546Z,4.12
2017-10-01T21:07:39.770Z,3.90
2017-10-01T21:10:07.996Z,3.95
2017-10-01T21:12:36.252Z,4.10
2017-10-01T21:15:05.292Z,5.05
2017-10-01T21:17:33.495Z,3.80
2017-10-01T21:20:01.733Z,4.30
2017-10-01T21:22:30.955Z,4.47
2017-10-01T21:24:59.148Z,3.75
2017-10-01T21:27:28.154Z,3.65
2017-10-01T21:29:56.364Z,3.85
2017-10-01T21:32:24.613Z,4.10
2017-10-01T21:34:52.859Z,3.92
2017-10-01T21:37:21.081Z,3.92
2017-10-01T21:39:49.425Z,4.35
2017-10-01T21:42:18.419Z,4.00
2017-10-01T21:44:47.494Z,3.95
2017-10-01T21:47:16.138Z,4.53
2017-10-01T21:49:44.374Z,4.40
2017-10-01T21:52:13.364Z,3.92
2017-10-01T21:54:42.328Z,3.90
2017-10-01T21:57:10.539Z,4.18
2017-10-01T21:59:38.759Z,4.10
2017-10-01T22:02:06.976Z,3.97
2017-10-01T22:04:35.612Z,4.30
2017-10-01T22:07:03.971Z,3.87
2017-10-01T22:09:32.195Z,4.50
2017-10-01T22:12:00.394Z,4.05
2017-10-01T22:14:29.364Z,4.25
2017-10-01T22:16:58.712Z,3.45
2017-10-01T22:19:26.945Z,3.37
2017-10-01T22:21:55.907Z,3.22
2017-10-01T22:24:24.164Z,3.90
2017-10-01T22:26:52.393Z,3.30
2017-10-01T22:29:22.368Z,4.07
2017-10-01T22:31:50.596Z,3.40
2017-10-01T22:34:18.864Z,3.70
2017-10-01T22:36:47.157Z,4.00
2017-10-01T22:39:15.387Z,3.67
2017-10-01T22:41:43.598Z,3.28
2017-10-01T22:44:11.817Z,4.25
2017-10-01T22:46:40.840Z,3.40
2017-10-01T22:49:09.839Z,3.15
2017-10-01T22:51:38.873Z,3.53
2017-10-01T22:54:07.461Z,3.87
2017-10-01T22:56:35.694Z,3.92
2017-10-01T22:59:04.771Z,3.40
2017-10-01T23:01:33.778Z,3.60
2017-10-01T23:04:16.516Z,3.50
2017-10-01T23:06:44.739Z,3.90
2017-10-01T23:09:13.026Z,3.72
2017-10-01T23:11:42.052Z,4.00
2017-10-01T23:14:10.395Z,3.50
2017-10-01T23:16:38.631Z,3.72
2017-10-01T23:19:06.852Z,3.33
2017-10-01T23:21:35.085Z,3.40
2017-10-01T23:24:03.337Z,3.50
2017-10-01T23:26:32.107Z,3.75
2017-10-01T23:29:00.315Z,4.07
2017-10-01T23:31:29.030Z,3.20
2017-10-01T23:33:57.305Z,3.55
2017-10-01T23:36:25.522Z,3.50
2017-10-01T23:38:53.787Z,3.08
2017-10-01T23:41:22.360Z,3.37
2017-10-01T23:43:50.570Z,3.90
2017-10-01T23:46:18.864Z,3.00
2017-10-01T23:48:47.087Z,3.45
2017-10-01T23:51:15.379Z,3.35
2017-10-01T23:53:43.947Z,3.42
2017-10-01T23:56:12.931Z,3.10
2017-10-01T23:58:41.136Z,3.67
